Startpagina
METAR-TAF:

METAR-TAF

Vliegvelden :

Conakry, Guinee

Luchthaven Conakry Internationaal

breedte: 09-34N, lengte: 013-37W, hoogte: 26 m

Actueel weer

Dit bericht is 9 uur en het 31 minuten geleden gemaakt, om 19:00 UTC
Wind 6 kt uit het westnoordwesten
Temperatuur 29°C
Vochtigheid 52%
Druk 1010 hPa
Zicht: 4000 m
Heiigheid

METAR: GUCY 131900Z 30006KT 4000 HZ NS 29/18 Q1010 NOSIG

Tijdstip: 04:31 (04:31 UTC)

Verwachting

Dit bericht is 11 uur en het 31 minuten geleden gemaakt, om 17:00 UTC
Verwachting geldig van 13 om 18 UTC tot 14 om 24 UTC
Wind 4 kt uit het westnoordwesten
Zicht: 5000 m
Heiigheid
Tijdelijke
van 14 om 03 UTC tot 14 om 08 UTC
Wind 2 kt uit variabele richting
Zicht: 2000 m
Verspreide wolken op 11000 ft
nevel
Wijzigt naar
van 14 om 10 UTC tot 14 om 14 UTC
Zicht: 4000 m
Heiigheid

TAF: GUCY 131700Z 1318/1424 29004KT 5000 HZ NSC TEMPO 1403/1408 VRB02KT 2000 BR SCT110 BECMG 1410/1414 4000 HZ

Waarnemingen en weersverwachtingen van meer dan 4000 vliegvelden (METAR en TAF).

De beschikbare stations zijn de gele en rode punten op de kaart.

Ga met uw muis naar het station om de naam te zien.

Klik dan om waarnemingen en weersverwachtingen te zien.

kaart wijzigen: klik op de groene knoppen met een zwart kruis om in te zoomen, op de groene knop met een streepje om uit te zoomen of op de groene pijlen voor aangrenzende kaarten.


METAR-TAF: